sensor_id;sensor_type;location;lat;lon;timestamp;pressure;altitude;pressure_sealevel;temperature;humidity
50852;BME280;43953;45.508;-122.806;2023-07-16T00:00:06;100608.16;;;30.90;33.99
50852;BME280;43953;45.508;-122.806;2023-07-16T00:00:39;100606.19;;;30.90;33.86
50852;BME280;43953;45.508;-122.806;2023-07-16T00:01:11;100607.00;;;30.91;33.85
50852;BME280;43953;45.508;-122.806;2023-07-16T00:01:43;100607.81;;;30.91;33.72
50852;BME280;43953;45.508;-122.806;2023-07-16T00:02:14;100605.84;;;30.92;33.76
50852;BME280;43953;45.508;-122.806;2023-07-16T00:02:46;100601.09;;;30.92;33.56
50852;BME280;43953;45.508;-122.806;2023-07-16T00:03:18;100603.06;;;30.92;33.62
50852;BME280;43953;45.508;-122.806;2023-07-16T00:03:49;100603.06;;;30.92;33.94
50852;BME280;43953;45.508;-122.806;2023-07-16T00:04:21;100606.66;;;30.92;34.05
50852;BME280;43953;45.508;-122.806;2023-07-16T00:04:53;100609.44;;;30.92;33.73
50852;BME280;43953;45.508;-122.806;2023-07-16T00:05:25;100608.25;;;30.93;33.72
50852;BME280;43953;45.508;-122.806;2023-07-16T00:05:56;100599.94;;;30.93;33.89
50852;BME280;43953;45.508;-122.806;2023-07-16T00:06:28;100600.72;;;30.94;33.58
50852;BME280;43953;45.508;-122.806;2023-07-16T00:07:00;100598.78;;;30.94;33.45
50852;BME280;43953;45.508;-122.806;2023-07-16T00:07:33;100605.16;;;30.95;33.51
50852;BME280;43953;45.508;-122.806;2023-07-16T00:08:05;100601.56;;;30.94;33.87
50852;BME280;43953;45.508;-122.806;2023-07-16T00:08:36;100601.56;;;30.94;34.03
50852;BME280;43953;45.508;-122.806;2023-07-16T00:09:08;100605.16;;;30.95;33.91
50852;BME280;43953;45.508;-122.806;2023-07-16T00:09:40;100603.19;;;30.95;34.01
50852;BME280;43953;45.508;-122.806;2023-07-16T00:10:12;100603.97;;;30.96;33.80
50852;BME280;43953;45.508;-122.806;2023-07-16T00:10:43;100601.19;;;30.96;33.94
50852;BME280;43953;45.508;-122.806;2023-07-16T00:11:15;100608.03;;;30.98;33.80
50852;BME280;43953;45.508;-122.806;2023-07-16T00:11:47;100606.06;;;30.99;33.89
50852;BME280;43953;45.508;-122.806;2023-07-16T00:12:18;100604.88;;;31.00;33.78
50852;BME280;43953;45.508;-122.806;2023-07-16T00:12:50;100600.97;;;31.01;33.43
50852;BME280;43953;45.508;-122.806;2023-07-16T00:13:22;100606.53;;;31.01;33.88
50852;BME280;43953;45.508;-122.806;2023-07-16T00:13:53;100597.81;;;31.02;33.48
50852;BME280;43953;45.508;-122.806;2023-07-16T00:14:25;100602.59;;;31.02;33.70
50852;BME280;43953;45.508;-122.806;2023-07-16T00:14:56;100604.22;;;31.03;33.85
50852;BME280;43953;45.508;-122.806;2023-07-16T00:15:29;100605.84;;;31.04;33.62
50852;BME280;43953;45.508;-122.806;2023-07-16T00:16:00;100611.38;;;31.04;33.77
50852;BME280;43953;45.508;-122.806;2023-07-16T00:16:32;100606.63;;;31.04;33.36
50852;BME280;43953;45.508;-122.806;2023-07-16T00:17:04;100607.44;;;31.05;33.55
50852;BME280;43953;45.508;-122.806;2023-07-16T00:17:36;100616.25;;;31.07;33.62
50852;BME280;43953;45.508;-122.806;2023-07-16T00:18:07;100607.09;;;31.07;33.58
50852;BME280;43953;45.508;-122.806;2023-07-16T00:18:41;100604.31;;;31.07;33.78
50852;BME280;43953;45.508;-122.806;2023-07-16T00:19:14;100607.91;;;31.07;33.69
50852;BME280;43953;45.508;-122.806;2023-07-16T00:19:46;100615.06;;;31.08;33.63
50852;BME280;43953;45.508;-122.806;2023-07-16T00:20:17;100609.19;;;31.10;33.63
50852;BME280;43953;45.508;-122.806;2023-07-16T00:20:49;100613.94;;;31.09;33.45
50852;BME280;43953;45.508;-122.806;2023-07-16T00:21:21;100608.38;;;31.09;33.55
50852;BME280;43953;45.508;-122.806;2023-07-16T00:21:52;100600.84;;;31.10;33.47
50852;BME280;43953;45.508;-122.806;2023-07-16T00:22:24;100598.06;;;31.10;33.66
50852;BME280;43953;45.508;-122.806;2023-07-16T00:22:56;100601.66;;;31.10;33.63
50852;BME280;43953;45.508;-122.806;2023-07-16T00:23:28;100607.22;;;31.10;33.29
50852;BME280;43953;45.508;-122.806;2023-07-16T00:24:00;100600.84;;;31.10;33.48
50852;BME280;43953;45.508;-122.806;2023-07-16T00:24:31;100604.44;;;31.10;33.58
50852;BME280;43953;45.508;-122.806;2023-07-16T00:25:03;100605.22;;;31.11;33.53
50852;BME280;43953;45.508;-122.806;2023-07-16T00:25:35;100602.44;;;31.11;33.45
50852;BME280;43953;45.508;-122.806;2023-07-16T00:26:07;100606.03;;;31.11;33.57
50852;BME280;43953;45.508;-122.806;2023-07-16T00:26:38;100602.13;;;31.12;33.67
50852;BME280;43953;45.508;-122.806;2023-07-16T00:27:10;100603.72;;;31.13;33.46
50852;BME280;43953;45.508;-122.806;2023-07-16T00:27:42;100610.09;;;31.14;33.71
50852;BME280;43953;45.508;-122.806;2023-07-16T00:28:13;100598.97;;;31.14;33.83
50852;BME280;43953;45.508;-122.806;2023-07-16T00:28:45;100608.94;;;31.15;33.63
50852;BME280;43953;45.508;-122.806;2023-07-16T00:29:17;100608.13;;;31.14;33.59
50852;BME280;43953;45.508;-122.806;2023-07-16T00:29:49;100609.75;;;31.15;33.69
50852;BME280;43953;45.508;-122.806;2023-07-16T00:30:20;100601.41;;;31.15;33.48
50852;BME280;43953;45.508;-122.806;2023-07-16T00:30:52;100606.97;;;31.15;33.25
50852;BME280;43953;45.508;-122.806;2023-07-16T00:31:24;100608.59;;;31.16;33.44
50852;BME280;43953;45.508;-122.806;2023-07-16T00:31:55;100613.34;;;31.16;33.51
50852;BME280;43953;45.508;-122.806;2023-07-16T00:32:27;100603.81;;;31.17;33.39
50852;BME280;43953;45.508;-122.806;2023-07-16T00:32:59;100608.59;;;31.16;33.35
50852;BME280;43953;45.508;-122.806;2023-07-16T00:33:30;100613.34;;;31.16;32.47
50852;BME280;43953;45.508;-122.806;2023-07-16T00:34:02;100605.34;;;31.14;32.23
50852;BME280;43953;45.508;-122.806;2023-07-16T00:34:34;100614.84;;;31.13;32.41
50852;BME280;43953;45.508;-122.806;2023-07-16T00:35:06;100604.44;;;31.10;32.79
50852;BME280;43953;45.508;-122.806;2023-07-16T00:35:37;100609.19;;;31.10;32.63
50852;BME280;43953;45.508;-122.806;2023-07-16T00:36:09;100606.75;;;31.08;32.94
50852;BME280;43953;45.508;-122.806;2023-07-16T00:36:41;100605.94;;;31.08;33.01
50852;BME280;43953;45.508;-122.806;2023-07-16T00:37:12;100604.31;;;31.07;32.90
50852;BME280;43953;45.508;-122.806;2023-07-16T00:37:44;100609.09;;;31.06;32.81
50852;BME280;43953;45.508;-122.806;2023-07-16T00:38:20;100604.22;;;31.03;32.75
50852;BME280;43953;45.508;-122.806;2023-07-16T00:38:51;100605.38;;;31.02;32.72
50852;BME280;43953;45.508;-122.806;2023-07-16T00:39:23;100604.56;;;31.01;32.78
50852;BME280;43953;45.508;-122.806;2023-07-16T00:39:55;100611.28;;;31.00;32.66
50852;BME280;43953;45.508;-122.806;2023-07-16T00:40:26;100607.69;;;31.00;32.75
50852;BME280;43953;45.508;-122.806;2023-07-16T00:40:58;100608.84;;;30.99;32.97
50852;BME280;43953;45.508;-122.806;2023-07-16T00:41:30;100600.03;;;30.97;32.73
50852;BME280;43953;45.508;-122.806;2023-07-16T00:42:01;100609.53;;;30.96;32.79
50852;BME280;43953;45.508;-122.806;2023-07-16T00:42:33;100604.78;;;30.96;32.79
50852;BME280;43953;45.508;-122.806;2023-07-16T00:43:05;100605.97;;;30.95;32.55
50852;BME280;43953;45.508;-122.806;2023-07-16T00:43:37;100604.34;;;30.94;32.66
50852;BME280;43953;45.508;-122.806;2023-07-16T00:44:08;100603.50;;;30.94;32.92
50852;BME280;43953;45.508;-122.806;2023-07-16T00:44:40;100601.91;;;30.93;32.69
50852;BME280;43953;45.508;-122.806;2023-07-16T00:45:13;100598.31;;;30.92;32.81
50852;BME280;43953;45.508;-122.806;2023-07-16T00:45:46;100603.88;;;30.92;32.54
50852;BME280;43953;45.508;-122.806;2023-07-16T00:46:18;100595.88;;;30.91;32.82
50852;BME280;43953;45.508;-122.806;2023-07-16T00:46:50;100595.88;;;30.91;32.95
50852;BME280;43953;45.508;-122.806;2023-07-16T00:47:22;100601.44;;;30.91;32.70
50852;BME280;43953;45.508;-122.806;2023-07-16T00:47:54;100601.44;;;30.91;32.69
50852;BME280;43953;45.508;-122.806;2023-07-16T00:48:26;100591.47;;;30.90;32.96
50852;BME280;43953;45.508;-122.806;2023-07-16T00:48:58;100599.81;;;30.90;32.67
50852;BME280;43953;45.508;-122.806;2023-07-16T00:49:29;100593.78;;;30.88;32.82
50852;BME280;43953;45.508;-122.806;2023-07-16T00:50:03;100593.47;;;30.89;32.96
50852;BME280;43953;45.508;-122.806;2023-07-16T00:50:36;100596.56;;;30.88;32.80
50852;BME280;43953;45.508;-122.806;2023-07-16T00:51:10;100587.44;;;30.87;32.75
50852;BME280;43953;45.508;-122.806;2023-07-16T00:51:43;100592.66;;;30.89;32.44
50852;BME280;43953;45.508;-122.806;2023-07-16T00:52:18;100593.78;;;30.88;32.89
50852;BME280;43953;45.508;-122.806;2023-07-16T00:52:50;100597.41;;;30.88;32.76
50852;BME280;43953;45.508;-122.806;2023-07-16T00:53:22;100587.09;;;30.89;32.81
50852;BME280;43953;45.508;-122.806;2023-07-16T00:53:54;100586.28;;;30.88;32.62
50852;BME280;43953;45.508;-122.806;2023-07-16T00:54:26;100590.22;;;30.87;32.91
50852;BME280;43953;45.508;-122.806;2023-07-16T00:54:59;100585.44;;;30.88;33.01
50852;BME280;43953;45.508;-122.806;2023-07-16T00:55:30;100595.78;;;30.87;32.70
50852;BME280;43953;45.508;-122.806;2023-07-16T00:56:02;100591.00;;;30.88;32.74
50852;BME280;43953;45.508;-122.806;2023-07-16T00:56:35;100583.84;;;30.87;32.68
50852;BME280;43953;45.508;-122.806;2023-07-16T00:57:08;100588.59;;;30.86;32.65
50852;BME280;43953;45.508;-122.806;2023-07-16T00:57:40;100589.41;;;30.87;32.89
50852;BME280;43953;45.508;-122.806;2023-07-16T00:58:12;100582.22;;;30.86;32.82
50852;BME280;43953;45.508;-122.806;2023-07-16T00:58:44;100586.63;;;30.87;33.01
50852;BME280;43953;45.508;-122.806;2023-07-16T00:59:16;100586.63;;;30.87;32.70
50852;BME280;43953;45.508;-122.806;2023-07-16T00:59:48;100593.00;;;30.87;32.95
50852;BME280;43953;45.508;-122.806;2023-07-16T01:00:19;100589.41;;;30.87;32.87
50852;BME280;43953;45.508;-122.806;2023-07-16T01:00:52;100589.41;;;30.87;32.91
50852;BME280;43953;45.508;-122.806;2023-07-16T01:01:24;100600.53;;;30.87;32.89
50852;BME280;43953;45.508;-122.806;2023-07-16T01:01:55;100592.19;;;30.87;32.67
50852;BME280;43953;45.508;-122.806;2023-07-16T01:02:27;100589.41;;;30.87;33.01
50852;BME280;43953;45.508;-122.806;2023-07-16T01:03:00;100594.16;;;30.86;32.85
50852;BME280;43953;45.508;-122.806;2023-07-16T01:03:32;100593.34;;;30.86;32.77
50852;BME280;43953;45.508;-122.806;2023-07-16T01:04:04;100585.00;;;30.86;32.97
50852;BME280;43953;45.508;-122.806;2023-07-16T01:04:36;100590.56;;;30.86;32.94
50852;BME280;43953;45.508;-122.806;2023-07-16T01:05:08;100594.16;;;30.86;32.68
50852;BME280;43953;45.508;-122.806;2023-07-16T01:06:09;100596.13;;;30.86;32.81
50852;BME280;43953;45.508;-122.806;2023-07-16T01:06:48;100589.41;;;30.87;32.68
50852;BME280;43953;45.508;-122.806;2023-07-16T01:07:24;100591.00;;;30.88;32.64
50852;BME280;43953;45.508;-122.806;2023-07-16T01:07:59;100588.72;;;30.90;32.48
50852;BME280;43953;45.508;-122.806;2023-07-16T01:08:40;100588.72;;;30.90;32.27
50852;BME280;43953;45.508;-122.806;2023-07-16T01:09:17;100594.25;;;30.90;32.70
50852;BME280;43953;45.508;-122.806;2023-07-16T01:09:50;100593.09;;;30.91;32.55
50852;BME280;43953;45.508;-122.806;2023-07-16T01:10:22;100592.75;;;30.92;32.55
50852;BME280;43953;45.508;-122.806;2023-07-16T01:10:55;100589.97;;;30.92;32.66
50852;BME280;43953;45.508;-122.806;2023-07-16T01:11:27;100585.59;;;30.91;32.46
50852;BME280;43953;45.508;-122.806;2023-07-16T01:12:00;100596.72;;;30.91;32.66
50852;BME280;43953;45.508;-122.806;2023-07-16T01:12:32;100593.09;;;30.91;32.60
50852;BME280;43953;45.508;-122.806;2023-07-16T01:13:04;100595.06;;;30.90;32.30
50852;BME280;43953;45.508;-122.806;2023-07-16T01:13:37;100597.84;;;30.90;32.48
50852;BME280;43953;45.508;-122.806;2023-07-16T01:14:10;100591.47;;;30.90;32.37
50852;BME280;43953;45.508;-122.806;2023-07-16T01:14:42;100591.47;;;30.90;32.64
50852;BME280;43953;45.508;-122.806;2023-07-16T01:15:14;100593.09;;;30.91;32.61
50852;BME280;43953;45.508;-122.806;2023-07-16T01:15:46;100597.84;;;30.90;32.61
50852;BME280;43953;45.508;-122.806;2023-07-16T01:16:22;100591.16;;;30.91;32.68
50852;BME280;43953;45.508;-122.806;2023-07-16T01:16:54;100594.25;;;30.90;32.53
50852;BME280;43953;45.508;-122.806;2023-07-16T01:17:30;100593.09;;;30.91;32.38
50852;BME280;43953;45.508;-122.806;2023-07-16T01:18:03;100592.75;;;30.92;32.54
50852;BME280;43953;45.508;-122.806;2023-07-16T01:18:34;100592.75;;;30.92;32.59
50852;BME280;43953;45.508;-122.806;2023-07-16T01:19:06;100594.72;;;30.92;32.41
50852;BME280;43953;45.508;-122.806;2023-07-16T01:19:38;100591.94;;;30.92;32.56
50852;BME280;43953;45.508;-122.806;2023-07-16T01:20:10;100593.56;;;30.93;32.27
50852;BME280;43953;45.508;-122.806;2023-07-16T01:20:42;100591.94;;;30.92;32.66
50852;BME280;43953;45.508;-122.806;2023-07-16T01:21:18;100589.16;;;30.92;32.33
50852;BME280;43953;45.508;-122.806;2023-07-16T01:23:50;100593.22;;;30.94;32.31
50852;BME280;43953;45.508;-122.806;2023-07-16T01:24:55;100591.25;;;30.95;32.21
50852;BME280;43953;45.508;-122.806;2023-07-16T01:26:39;100592.16;;;30.99;32.13
50852;BME280;43953;45.508;-122.806;2023-07-16T01:29:44;100600.28;;;31.04;32.16
50852;BME280;43953;45.508;-122.806;2023-07-16T01:30:19;100597.97;;;31.06;32.29
50852;BME280;43953;45.508;-122.806;2023-07-16T01:30:52;100596.78;;;31.07;32.27
50852;BME280;43953;45.508;-122.806;2023-07-16T01:31:25;100597.97;;;31.06;32.17
50852;BME280;43953;45.508;-122.806;2023-07-16T01:32:00;100595.50;;;31.04;32.15
50852;BME280;43953;45.508;-122.806;2023-07-16T01:32:33;100594.72;;;31.04;32.15
50852;BME280;43953;45.508;-122.806;2023-07-16T01:33:07;100588.69;;;31.02;32.36
50852;BME280;43953;45.508;-122.806;2023-07-16T01:33:42;100596.22;;;31.01;32.30
50852;BME280;43953;45.508;-122.806;2023-07-16T01:34:14;100598.19;;;31.01;32.11
50852;BME280;43953;45.508;-122.806;2023-07-16T01:34:46;100589.38;;;30.99;32.13
50852;BME280;43953;45.508;-122.806;2023-07-16T01:35:19;100587.78;;;30.98;32.27
50852;BME280;43953;45.508;-122.806;2023-07-16T01:35:51;100590.56;;;30.98;32.32
50852;BME280;43953;45.508;-122.806;2023-07-16T01:36:24;100588.91;;;30.97;32.21
50852;BME280;43953;45.508;-122.806;2023-07-16T01:36:56;100589.28;;;30.95;32.20
50852;BME280;43953;45.508;-122.806;2023-07-16T01:37:28;100580.13;;;30.95;32.24
50852;BME280;43953;45.508;-122.806;2023-07-16T01:37:59;100588.81;;;30.93;32.08
50852;BME280;43953;45.508;-122.806;2023-07-16T01:38:31;100579.31;;;30.94;32.12
50852;BME280;43953;45.508;-122.806;2023-07-16T01:39:03;100579.66;;;30.93;32.38
50852;BME280;43953;45.508;-122.806;2023-07-16T01:39:35;100585.22;;;30.93;32.30
50852;BME280;43953;45.508;-122.806;2023-07-16T01:40:08;100586.41;;;30.92;32.23
50852;BME280;43953;45.508;-122.806;2023-07-16T01:40:43;100575.28;;;30.92;32.40
50852;BME280;43953;45.508;-122.806;2023-07-16T01:41:14;100584.41;;;30.92;32.41
50852;BME280;43953;45.508;-122.806;2023-07-16T01:41:46;100578.06;;;30.92;32.39
50852;BME280;43953;45.508;-122.806;2023-07-16T01:42:18;100581.63;;;30.92;32.26
50852;BME280;43953;45.508;-122.806;2023-07-16T01:42:49;100583.25;;;30.93;32.13
50852;BME280;43953;45.508;-122.806;2023-07-16T01:43:21;100582.44;;;30.93;32.13
50852;BME280;43953;45.508;-122.806;2023-07-16T01:43:53;100579.66;;;30.93;32.41
50852;BME280;43953;45.508;-122.806;2023-07-16T01:44:24;100576.88;;;30.93;32.43
50852;BME280;43953;45.508;-122.806;2023-07-16T01:44:56;100585.22;;;30.93;32.35
50852;BME280;43953;45.508;-122.806;2023-07-16T01:45:28;100579.66;;;30.93;32.39
50852;BME280;43953;45.508;-122.806;2023-07-16T01:46:00;100576.88;;;30.93;32.46
50852;BME280;43953;45.508;-122.806;2023-07-16T01:46:32;100576.88;;;30.93;32.25
50852;BME280;43953;45.508;-122.806;2023-07-16T01:47:46;100575.28;;;30.92;32.39
50852;BME280;43953;45.508;-122.806;2023-07-16T01:49:00;100576.97;;;30.96;32.48
50852;BME280;43953;45.508;-122.806;2023-07-16T01:49:33;100580.56;;;30.97;32.20
50852;BME280;43953;45.508;-122.806;2023-07-16T01:50:05;100575.84;;;30.97;32.17
50852;BME280;43953;45.508;-122.806;2023-07-16T01:50:37;100581.03;;;30.99;32.40
50852;BME280;43953;45.508;-122.806;2023-07-16T01:51:09;100576.66;;;30.98;32.17
50852;BME280;43953;45.508;-122.806;2023-07-16T01:51:41;100573.88;;;30.98;32.50
50852;BME280;43953;45.508;-122.806;2023-07-16T01:52:12;100583.34;;;30.97;32.27
50852;BME280;43953;45.508;-122.806;2023-07-16T01:52:44;100575.00;;;30.97;32.32
50852;BME280;43953;45.508;-122.806;2023-07-16T01:53:15;100572.22;;;30.97;32.63
50852;BME280;43953;45.508;-122.806;2023-07-16T01:53:47;100578.63;;;30.97;32.40
50852;BME280;43953;45.508;-122.806;2023-07-16T01:54:19;100574.22;;;30.96;32.59
50852;BME280;43953;45.508;-122.806;2023-07-16T01:54:51;100576.19;;;30.96;32.34
50852;BME280;43953;45.508;-122.806;2023-07-16T01:55:22;100575.00;;;30.97;32.52
50852;BME280;43953;45.508;-122.806;2023-07-16T01:55:54;100578.63;;;30.97;32.54
50852;BME280;43953;45.508;-122.806;2023-07-16T01:56:26;100576.97;;;30.96;32.40
50852;BME280;43953;45.508;-122.806;2023-07-16T01:56:58;100572.22;;;30.97;32.40
50852;BME280;43953;45.508;-122.806;2023-07-16T01:57:30;100570.28;;;30.97;32.43
50852;BME280;43953;45.508;-122.806;2023-07-16T01:58:01;100572.22;;;30.97;32.48
50852;BME280;43953;45.508;-122.806;2023-07-16T01:58:34;100578.63;;;30.97;32.53
50852;BME280;43953;45.508;-122.806;2023-07-16T01:59:05;100573.06;;;30.97;32.35
50852;BME280;43953;45.508;-122.806;2023-07-16T01:59:37;100581.03;;;30.99;32.42
50852;BME280;43953;45.508;-122.806;2023-07-16T02:00:09;100567.13;;;30.99;32.37
50852;BME280;43953;45.508;-122.806;2023-07-16T02:00:41;100577.47;;;30.98;32.53
50852;BME280;43953;45.508;-122.806;2023-07-16T02:01:13;100581.03;;;30.99;32.42
50852;BME280;43953;45.508;-122.806;2023-07-16T02:01:45;100575.47;;;30.99;32.34
50852;BME280;43953;45.508;-122.806;2023-07-16T02:02:16;100577.47;;;30.98;32.47
50852;BME280;43953;45.508;-122.806;2023-07-16T02:02:48;100576.66;;;30.98;32.49
50852;BME280;43953;45.508;-122.806;2023-07-16T02:03:20;100574.69;;;30.98;32.39
50852;BME280;43953;45.508;-122.806;2023-07-16T02:03:51;100575.47;;;30.99;32.34
50852;BME280;43953;45.508;-122.806;2023-07-16T02:04:23;100580.22;;;30.98;32.73
50852;BME280;43953;45.508;-122.806;2023-07-16T02:04:55;100573.88;;;30.98;32.52
50852;BME280;43953;45.508;-122.806;2023-07-16T02:05:26;100580.22;;;30.98;32.32
50852;BME280;43953;45.508;-122.806;2023-07-16T02:05:58;100581.03;;;30.99;32.49
50852;BME280;43953;45.508;-122.806;2023-07-16T02:06:30;100580.22;;;30.98;32.57
50852;BME280;43953;45.508;-122.806;2023-07-16T02:07:01;100581.84;;;30.99;32.65
50852;BME280;43953;45.508;-122.806;2023-07-16T02:07:33;100586.59;;;30.99;32.39
50852;BME280;43953;45.508;-122.806;2023-07-16T02:08:05;100591.81;;;31.00;32.59
50852;BME280;43953;45.508;-122.806;2023-07-16T02:08:37;100589.38;;;30.99;32.51
50852;BME280;43953;45.508;-122.806;2023-07-16T02:09:10;100585.78;;;30.98;32.54
50852;BME280;43953;45.508;-122.806;2023-07-16T02:09:41;100585.00;;;30.98;32.38
50852;BME280;43953;45.508;-122.806;2023-07-16T02:10:13;100592.16;;;30.99;32.45
50852;BME280;43953;45.508;-122.806;2023-07-16T02:10:47;100592.16;;;30.99;32.64
50852;BME280;43953;45.508;-122.806;2023-07-16T02:11:19;100591.00;;;31.00;32.70
50852;BME280;43953;45.508;-122.806;2023-07-16T02:11:51;100588.22;;;31.00;32.38
50852;BME280;43953;45.508;-122.806;2023-07-16T02:12:23;100596.56;;;31.00;32.31
50852;BME280;43953;45.508;-122.806;2023-07-16T02:12:55;100589.84;;;31.01;32.60
50852;BME280;43953;45.508;-122.806;2023-07-16T02:13:27;100588.22;;;31.00;32.60
50852;BME280;43953;45.508;-122.806;2023-07-16T02:13:59;100589.03;;;31.00;32.33
50852;BME280;43953;45.508;-122.806;2023-07-16T02:14:31;100592.63;;;31.01;32.57
50852;BME280;43953;45.508;-122.806;2023-07-16T02:15:02;100589.84;;;31.01;32.52
50852;BME280;43953;45.508;-122.806;2023-07-16T02:15:34;100591.47;;;31.02;32.52
50852;BME280;43953;45.508;-122.806;2023-07-16T02:16:06;100595.41;;;31.01;32.53
50852;BME280;43953;45.508;-122.806;2023-07-16T02:16:37;100588.69;;;31.02;32.48
50852;BME280;43953;45.508;-122.806;2023-07-16T02:17:09;100585.91;;;31.02;32.50
50852;BME280;43953;45.508;-122.806;2023-07-16T02:17:41;100593.09;;;31.03;32.25
50852;BME280;43953;45.508;-122.806;2023-07-16T02:18:12;100597.50;;;31.04;32.23
50852;BME280;43953;45.508;-122.806;2023-07-16T02:18:44;100598.66;;;31.03;32.35
50852;BME280;43953;45.508;-122.806;2023-07-16T02:19:16;100593.09;;;31.03;32.29
50852;BME280;43953;45.508;-122.806;2023-07-16T02:19:47;100599.81;;;31.02;32.43
50852;BME280;43953;45.508;-122.806;2023-07-16T02:20:19;100601.44;;;31.03;32.44
50852;BME280;43953;45.508;-122.806;2023-07-16T02:20:51;100604.22;;;31.03;32.39
50852;BME280;43953;45.508;-122.806;2023-07-16T02:21:22;100600.59;;;31.02;32.50
50852;BME280;43953;45.508;-122.806;2023-07-16T02:21:54;100593.09;;;31.03;32.45
50852;BME280;43953;45.508;-122.806;2023-07-16T02:22:26;100590.31;;;31.03;32.52
50852;BME280;43953;45.508;-122.806;2023-07-16T02:22:57;100593.91;;;31.03;32.18
50852;BME280;43953;45.508;-122.806;2023-07-16T02:23:29;100594.72;;;31.04;32.22
50852;BME280;43953;45.508;-122.806;2023-07-16T02:24:01;100591.94;;;31.04;32.46
50852;BME280;43953;45.508;-122.806;2023-07-16T02:24:32;100596.31;;;31.05;32.46
50852;BME280;43953;45.508;-122.806;2023-07-16T02:25:05;100591.94;;;31.04;32.45
50852;BME280;43953;45.508;-122.806;2023-07-16T02:25:37;100586.38;;;31.04;32.54
50852;BME280;43953;45.508;-122.806;2023-07-16T02:26:08;100589.94;;;31.04;32.56
50852;BME280;43953;45.508;-122.806;2023-07-16T02:26:40;100591.13;;;31.03;32.54
50852;BME280;43953;45.508;-122.806;2023-07-16T02:27:12;100595.50;;;31.04;32.36
50852;BME280;43953;45.508;-122.806;2023-07-16T02:27:43;100595.19;;;31.06;32.54
50852;BME280;43953;45.508;-122.806;2023-07-16T02:28:15;100592.41;;;31.06;32.67
50852;BME280;43953;45.508;-122.806;2023-07-16T02:28:47;100597.97;;;31.06;32.54
50852;BME280;43953;45.508;-122.806;2023-07-16T02:29:18;100598.75;;;31.07;32.55
50852;BME280;43953;45.508;-122.806;2023-07-16T02:29:50;100595.97;;;31.07;32.58
50852;BME280;43953;45.508;-122.806;2023-07-16T02:30:22;100594.81;;;31.08;32.28
50852;BME280;43953;45.508;-122.806;2023-07-16T02:30:53;100592.84;;;31.08;32.34
50852;BME280;43953;45.508;-122.806;2023-07-16T02:31:25;100597.59;;;31.08;32.55
50852;BME280;43953;45.508;-122.806;2023-07-16T02:31:57;100600.38;;;31.08;32.48
50852;BME280;43953;45.508;-122.806;2023-07-16T02:32:28;100597.25;;;31.09;32.66
50852;BME280;43953;45.508;-122.806;2023-07-16T02:33:00;100596.09;;;31.10;32.42
50852;BME280;43953;45.508;-122.806;2023-07-16T02:33:32;100592.50;;;31.10;32.59
50852;BME280;43953;45.508;-122.806;2023-07-16T02:34:03;100592.50;;;31.10;32.73
50852;BME280;43953;45.508;-122.806;2023-07-16T02:34:35;100594.47;;;31.09;32.73
50852;BME280;43953;45.508;-122.806;2023-07-16T02:35:07;100596.09;;;31.10;32.53
50852;BME280;43953;45.508;-122.806;2023-07-16T02:35:39;100597.25;;;31.09;32.49
50852;BME280;43953;45.508;-122.806;2023-07-16T02:36:11;100590.06;;;31.08;32.32
50852;BME280;43953;45.508;-122.806;2023-07-16T02:36:42;100592.41;;;31.06;32.23
50852;BME280;43953;45.508;-122.806;2023-07-16T02:37:14;100594.00;;;31.07;32.54
50852;BME280;43953;45.508;-122.806;2023-07-16T02:37:46;100588.44;;;31.07;32.57
50852;BME280;43953;45.508;-122.806;2023-07-16T02:38:18;100589.63;;;31.06;32.21
50852;BME280;43953;45.508;-122.806;2023-07-16T02:38:49;100597.97;;;31.06;32.35
50852;BME280;43953;45.508;-122.806;2023-07-16T02:39:21;100593.53;;;31.05;32.56
50852;BME280;43953;45.508;-122.806;2023-07-16T02:39:53;100597.13;;;31.05;32.55
50852;BME280;43953;45.508;-122.806;2023-07-16T02:40:25;100595.19;;;31.06;32.67
50852;BME280;43953;45.508;-122.806;2023-07-16T02:40:56;100597.97;;;31.06;32.48
50852;BME280;43953;45.508;-122.806;2023-07-16T02:41:28;100595.19;;;31.06;32.50
50852;BME280;43953;45.508;-122.806;2023-07-16T02:42:00;100597.13;;;31.05;32.46
50852;BME280;43953;45.508;-122.806;2023-07-16T02:42:31;100597.97;;;31.06;32.47
50852;BME280;43953;45.508;-122.806;2023-07-16T02:43:03;100599.09;;;31.05;32.33
50852;BME280;43953;45.508;-122.806;2023-07-16T02:43:35;100597.97;;;31.06;32.58
50852;BME280;43953;45.508;-122.806;2023-07-16T02:44:06;100597.13;;;31.05;32.56
50852;BME280;43953;45.508;-122.806;2023-07-16T02:44:38;100606.31;;;31.06;32.81
50852;BME280;43953;45.508;-122.806;2023-07-16T02:45:14;100596.31;;;31.05;32.82
50852;BME280;43953;45.508;-122.806;2023-07-16T02:45:46;100603.53;;;31.06;32.80
50852;BME280;43953;45.508;-122.806;2023-07-16T02:46:18;100601.06;;;31.04;33.05
50852;BME280;43953;45.508;-122.806;2023-07-16T02:46:49;100594.72;;;31.04;32.89
50852;BME280;43953;45.508;-122.806;2023-07-16T02:47:21;100608.25;;;31.05;32.51
50852;BME280;43953;45.508;-122.806;2023-07-16T02:47:53;100609.09;;;31.06;32.71
50852;BME280;43953;45.508;-122.806;2023-07-16T02:48:25;100610.69;;;31.07;32.80
50852;BME280;43953;45.508;-122.806;2023-07-16T02:48:56;100612.31;;;31.08;32.63
50852;BME280;43953;45.508;-122.806;2023-07-16T02:49:28;100612.31;;;31.08;32.68